Time;durP1;ratioP1;P1;durP2;ratioP2;P2;SDS_P1;SDS_P2;PMS_P1;PMS_P2;Temp;Humidity;BMP_temperature;BMP_pressure;BME280_temperature;BME280_humidity;BME280_pressure;Samples;Min_cycle;Max_cycle;Signal;HPM_P1;HPM_P2
2024/02/01 00:00:43;;;;;;;10.13;4.53;;;;;;;7.10;100.00;101847.41;6299690;28;20064;-78
2024/02/01 00:03:44;;;;;;;10.98;4.32;;;;;;;6.88;100.00;101849.59;6299863;28;20064;-76
2024/02/01 00:06:50;;;;;;;7.78;4.68;;;;;;;6.75;100.00;101853.34;6299298;28;20052;-76
2024/02/01 00:09:51;;;;;;;9.93;5.18;;;;;;;6.78;100.00;101850.66;6298508;28;20064;-77
2024/02/01 00:12:53;;;;;;;11.32;5.40;;;;;;;6.73;100.00;101861.22;6299399;28;20049;-77
2024/02/01 00:15:54;;;;;;;9.55;4.88;;;;;;;6.65;100.00;101860.50;6299523;28;20075;-77
2024/02/01 00:18:56;;;;;;;9.43;5.88;;;;;;;6.65;100.00;101849.19;6299127;28;20044;-78
2024/02/01 00:21:58;;;;;;;18.08;5.65;;;;;;;6.67;100.00;101852.63;6297579;28;20064;-79
2024/02/01 00:25:00;;;;;;;13.95;5.63;;;;;;;6.69;100.00;101853.47;6293860;28;20044;-77
2024/02/01 00:28:02;;;;;;;12.93;5.55;;;;;;;6.65;100.00;101850.03;6295900;28;20052;-78
2024/02/01 00:31:04;;;;;;;15.35;6.70;;;;;;;6.61;100.00;101858.81;6288367;28;20050;-78
2024/02/01 00:34:05;;;;;;;17.38;6.00;;;;;;;6.41;100.00;101859.19;6292847;28;20052;-77
2024/02/01 00:37:08;;;;;;;16.90;6.53;;;;;;;6.43;100.00;101848.72;6290606;28;20053;-77
2024/02/01 00:40:10;;;;;;;14.10;6.25;;;;;;;6.39;100.00;101850.53;6284228;28;20060;-78
2024/02/01 00:43:12;;;;;;;12.35;6.53;;;;;;;6.45;100.00;101845.22;6294316;28;20037;-79
2024/02/01 00:46:14;;;;;;;14.80;6.53;;;;;;;6.40;100.00;101846.16;6292608;28;20052;-79
2024/02/01 00:49:15;;;;;;;16.30;7.00;;;;;;;6.39;100.00;101840.06;6292015;28;20049;-78
2024/02/01 00:52:18;;;;;;;12.80;7.18;;;;;;;6.46;100.00;101836.47;6298372;28;20051;-77
2024/02/01 00:55:20;;;;;;;12.07;6.65;;;;;;;6.47;100.00;101825.13;6300383;28;20041;-77
2024/02/01 00:58:21;;;;;;;17.40;8.07;;;;;;;6.61;100.00;101828.34;6302952;28;20131;-78
2024/02/01 01:01:24;;;;;;;12.90;6.65;;;;;;;6.51;100.00;101826.81;6296272;28;20059;-79
2024/02/01 01:04:25;;;;;;;15.55;7.28;;;;;;;6.55;100.00;101815.41;6284841;28;20128;-80
2024/02/01 01:07:28;;;;;;;18.83;7.65;;;;;;;6.51;100.00;101818.13;6302729;28;20048;-77
2024/02/01 01:10:29;;;;;;;22.60;7.85;;;;;;;6.57;100.00;101815.38;6303396;28;20072;-77
2024/02/01 01:13:30;;;;;;;15.15;7.82;;;;;;;6.56;100.00;101811.03;6302863;28;20433;-76
2024/02/01 01:16:32;;;;;;;21.50;8.50;;;;;;;6.54;100.00;101818.91;6302890;28;20048;-79
2024/02/01 01:19:33;;;;;;;24.63;8.02;;;;;;;6.41;100.00;101825.25;6302994;28;20048;-78
2024/02/01 01:22:36;;;;;;;15.50;8.38;;;;;;;6.42;100.00;101810.47;6303211;28;20053;-80
2024/02/01 01:25:37;;;;;;;17.90;9.32;;;;;;;6.56;100.00;101801.47;6302833;28;20049;-80
2024/02/01 01:28:38;;;;;;;19.05;8.70;;;;;;;6.51;100.00;101798.06;6302534;28;20049;-77
2024/02/01 01:31:42;;;;;;;19.15;8.30;;;;;;;6.52;100.00;101799.78;6302876;28;20052;-79
2024/02/01 01:34:43;;;;;;;19.45;9.38;;;;;;;6.48;100.00;101786.81;6302324;28;20052;-78
2024/02/01 01:37:46;;;;;;;16.33;8.50;;;;;;;6.61;100.00;101783.09;6302227;28;20452;-79
2024/02/01 01:40:47;;;;;;;19.48;8.75;;;;;;;6.59;100.00;101792.72;6302418;28;20425;-77
2024/02/01 01:43:48;;;;;;;24.40;9.80;;;;;;;6.53;100.00;101783.22;6302460;28;20071;-79
2024/02/01 01:46:50;;;;;;;15.60;8.38;;;;;;;6.53;100.00;101783.22;6301951;28;20049;-79
2024/02/01 01:49:51;;;;;;;15.02;7.78;;;;;;;6.54;100.00;101778.88;6302712;28;20048;-79
2024/02/01 01:52:57;;;;;;;19.20;9.18;;;;;;;6.61;100.00;101794.38;6302133;28;20049;-77
2024/02/01 01:56:00;;;;;;;16.63;9.05;;;;;;;6.47;100.00;101785.97;6302338;28;20452;-79
2024/02/01 02:02:12;;;;;;;20.55;10.02;;;;;;;6.67;100.00;101800.38;6264056;28;20107;-77
2024/02/01 02:05:14;;;;;;;16.23;9.23;;;;;;;6.63;100.00;101791.72;6274564;28;20045;-77
2024/02/01 02:08:16;;;;;;;17.13;8.85;;;;;;;6.67;100.00;101795.16;6275798;28;20132;-77
2024/02/01 02:11:18;;;;;;;22.00;9.60;;;;;;;6.71;100.00;101786.38;6257897;28;20335;-77
2024/02/01 02:14:19;;;;;;;21.17;8.50;;;;;;;6.63;100.00;101785.66;6251686;28;20475;-76
2024/02/01 02:17:20;;;;;;;22.67;10.13;;;;;;;6.65;100.00;101789.97;6251572;28;20046;-77
2024/02/01 02:20:26;;;;;;;16.33;7.82;;;;;;;6.68;100.00;101789.91;6251770;28;20049;-77
2024/02/01 02:23:30;;;;;;;18.33;8.60;;;;;;;6.67;100.00;101788.16;6250321;28;20045;-76
2024/02/01 02:26:32;;;;;;;16.50;8.73;;;;;;;6.71;100.00;101786.38;6251363;28;20053;-76
2024/02/01 02:29:34;;;;;;;17.27;9.02;;;;;;;6.72;100.00;101788.06;6251788;28;20061;-77
2024/02/01 02:32:35;;;;;;;16.65;8.63;;;;;;;6.68;100.00;101787.31;6251952;28;20259;-76
2024/02/01 02:35:36;;;;;;;17.10;9.32;;;;;;;6.71;100.00;101788.97;6251636;28;20172;-76
2024/02/01 02:38:40;;;;;;;21.73;9.10;;;;;;;6.82;100.00;101787.88;6250992;28;20053;-77
2024/02/01 02:41:41;;;;;;;21.08;9.38;;;;;;;6.83;100.00;101784.38;6251682;28;20053;-76
2024/02/01 02:44:42;;;;;;;23.80;8.13;;;;;;;6.85;100.00;101774.72;6251235;28;20345;-76
2024/02/01 02:47:44;;;;;;;16.45;8.77;;;;;;;6.84;100.00;101778.25;6250785;28;20052;-77
2024/02/01 02:50:46;;;;;;;19.92;8.60;;;;;;;6.77;100.00;101781.88;6251473;28;20053;-76
2024/02/01 02:53:49;;;;;;;15.02;8.73;;;;;;;6.83;100.00;101792.19;6250811;28;20520;-76
2024/02/01 02:56:50;;;;;;;17.95;8.65;;;;;;;6.98;100.00;101790.16;6251004;28;20053;-76
2024/02/01 02:59:52;;;;;;;16.35;8.23;;;;;;;6.88;100.00;101786.03;6251103;28;20064;-76
2024/02/01 03:02:53;;;;;;;17.20;8.95;;;;;;;6.94;100.00;101786.72;6251081;28;20438;-76
2024/02/01 03:05:54;;;;;;;18.92;8.98;;;;;;;6.88;100.00;101792.09;6248264;28;20049;-75
2024/02/01 03:08:57;;;;;;;17.38;7.90;;;;;;;6.82;100.00;101800.09;6245787;28;20049;-75
2024/02/01 03:11:58;;;;;;;15.55;7.68;;;;;;;6.93;100.00;101805.94;6250330;28;20057;-76
2024/02/01 03:14:59;;;;;;;19.55;7.50;;;;;;;6.90;100.00;101810.34;6250024;28;20041;-76
2024/02/01 03:18:01;;;;;;;18.17;8.55;;;;;;;6.93;100.00;101810.28;6247128;28;20053;-76
2024/02/01 03:21:02;;;;;;;15.25;8.13;;;;;;;7.05;100.00;101813.50;6249592;28;20064;-76
2024/02/01 03:24:05;;;;;;;15.40;8.18;;;;;;;6.99;100.00;101805.78;6250163;28;20042;-76
2024/02/01 03:27:11;;;;;;;13.90;7.65;;;;;;;7.00;100.00;101817.97;6250483;28;20052;-75
2024/02/01 03:30:15;;;;;;;13.27;7.15;;;;;;;7.05;100.00;101820.50;6250502;28;20365;-76
2024/02/01 03:33:19;;;;;;;14.43;8.10;;;;;;;7.07;100.00;101830.00;6250602;28;20089;-76
2024/02/01 03:36:20;;;;;;;15.82;7.68;;;;;;;7.03;100.00;101822.25;6249914;28;20353;-76
2024/02/01 03:39:23;;;;;;;16.65;9.38;;;;;;;7.07;100.00;101837.84;6249808;28;20049;-75
2024/02/01 03:42:25;;;;;;;18.80;8.65;;;;;;;7.06;100.00;101825.69;6250146;28;20045;-76
2024/02/01 03:45:29;;;;;;;19.45;9.15;;;;;;;7.10;100.00;101824.72;6248922;28;20041;-76
2024/02/01 03:48:32;;;;;;;13.85;8.00;;;;;;;7.18;100.00;101831.56;6248874;28;20121;-76
2024/02/01 03:51:36;;;;;;;17.35;8.35;;;;;;;7.18;100.00;101828.94;6247263;28;20051;-76
2024/02/01 03:54:39;;;;;;;16.55;8.32;;;;;;;7.17;100.00;101827.19;6250032;28;20045;-76
2024/02/01 03:57:41;;;;;;;19.45;8.05;;;;;;;7.16;100.00;101836.78;6249852;28;20050;-77
2024/02/01 04:00:42;;;;;;;15.73;8.23;;;;;;;7.19;100.00;101839.34;6250213;28;20080;-76
2024/02/01 04:03:43;;;;;;;14.48;7.68;;;;;;;7.09;100.00;101830.84;6249897;28;20053;-76
2024/02/01 04:06:45;;;;;;;13.50;7.03;;;;;;;7.19;100.00;101838.50;6249839;28;20053;-76
2024/02/01 04:09:47;;;;;;;17.40;8.95;;;;;;;7.38;100.00;101842.41;6249387;28;20515;-77
2024/02/01 04:12:49;;;;;;;17.13;8.45;;;;;;;7.37;100.00;101853.78;6249907;28;20056;-76
2024/02/01 04:15:50;;;;;;;18.88;9.05;;;;;;;7.38;100.00;101865.94;6249985;28;20045;-75
2024/02/01 04:18:52;;;;;;;19.30;8.75;;;;;;;7.41;100.00;101862.41;6249902;28;20057;-76
2024/02/01 04:21:53;;;;;;;13.95;8.00;;;;;;;7.44;100.00;101860.56;6254008;28;20179;-76
2024/02/01 04:24:56;;;;;;;18.25;9.15;;;;;;;7.52;100.00;101876.09;6254462;28;20046;-76
2024/02/01 04:27:57;;;;;;;19.20;9.73;;;;;;;7.44;100.00;101872.78;6254140;28;20354;-77
2024/02/01 04:31:01;;;;;;;19.63;9.43;;;;;;;7.43;100.00;101876.31;6254501;28;20052;-76
2024/02/01 04:34:03;;;;;;;18.70;7.97;;;;;;;7.41;100.00;101893.81;6254424;28;20053;-76
2024/02/01 04:37:05;;;;;;;16.25;8.82;;;;;;;7.32;100.00;101893.09;6253882;28;20064;-76
2024/02/01 04:40:09;;;;;;;15.10;7.45;;;;;;;7.34;100.00;101899.16;6254250;28;20060;-76
2024/02/01 04:43:11;;;;;;;16.55;8.13;;;;;;;7.36;100.00;101910.44;6254058;28;20049;-76
2024/02/01 04:46:13;;;;;;;16.40;7.20;;;;;;;7.30;100.00;101925.38;6254290;28;20353;-76
2024/02/01 04:49:14;;;;;;;13.20;6.57;;;;;;;7.27;100.00;101925.47;6253611;28;20049;-76
2024/02/01 04:52:15;;;;;;;19.77;7.65;;;;;;;7.24;100.00;101941.22;6259892;28;20056;-76
2024/02/01 04:55:18;;;;;;;14.27;6.57;;;;;;;7.29;100.00;101932.38;6260112;28;20045;-76
2024/02/01 04:58:20;;;;;;;15.32;7.63;;;;;;;7.25;100.00;101943.78;6253157;28;20342;-76
2024/02/01 05:01:21;;;;;;;14.23;6.07;;;;;;;7.18;100.00;101947.44;6253784;28;20054;-76
2024/02/01 05:04:23;;;;;;;12.13;6.28;;;;;;;7.07;100.00;101947.63;6253416;28;20053;-76
2024/02/01 05:07:24;;;;;;;11.82;5.10;;;;;;;7.09;100.00;101945.88;6253194;28;20353;-76
2024/02/01 05:10:27;;;;;;;13.80;5.63;;;;;;;7.16;100.00;101946.59;6253606;28;20049;-76
2024/02/01 05:13:30;;;;;;;11.88;5.60;;;;;;;7.10;100.00;101958.03;6253515;28;20053;-76
2024/02/01 05:16:31;;;;;;;11.30;5.65;;;;;;;7.16;100.00;101964.03;6252962;28;20056;-76
2024/02/01 05:19:33;;;;;;;13.70;5.25;;;;;;;7.04;100.00;101962.50;6253766;28;20460;-76
2024/02/01 05:22:34;;;;;;;18.33;5.57;;;;;;;7.05;100.00;101972.94;6253396;28;20050;-76
2024/02/01 05:25:40;;;;;;;11.38;4.85;;;;;;;7.03;100.00;101971.25;6253343;28;20045;-76
2024/02/01 05:28:41;;;;;;;12.93;5.22;;;;;;;6.96;100.00;101970.50;6252795;28;20345;-76
2024/02/01 05:31:47;;;;;;;15.65;5.47;;;;;;;6.92;100.00;101976.69;6252743;28;20053;-76
2024/02/01 05:34:48;;;;;;;10.15;4.78;;;;;;;6.89;100.00;101976.72;6252957;28;20050;-75
2024/02/01 05:37:50;;;;;;;19.40;6.57;;;;;;;6.97;100.00;101990.53;6252563;28;20053;-75
2024/02/01 05:40:52;;;;;;;8.55;4.90;;;;;;;7.02;100.00;101999.13;6252978;28;20442;-76
2024/02/01 05:43:54;;;;;;;13.38;5.05;;;;;;;6.94;100.00;101998.41;6252633;28;20056;-75
2024/02/01 05:46:56;;;;;;;11.02;5.03;;;;;;;6.93;100.00;102008.91;6252597;28;20060;-75
2024/02/01 05:49:58;;;;;;;10.18;3.88;;;;;;;6.91;100.00;102015.91;6252565;28;20053;-75
2024/02/01 05:52:59;;;;;;;14.02;4.63;;;;;;;6.90;100.00;102024.63;6252620;28;20049;-75
2024/02/01 05:56:02;;;;;;;17.60;5.38;;;;;;;6.89;100.00;102038.56;6252456;28;20042;-74
2024/02/01 05:59:03;;;;;;;13.82;4.20;;;;;;;6.89;100.00;102041.19;6251812;28;20372;-73
2024/02/01 06:02:05;;;;;;;17.00;4.65;;;;;;;6.86;100.00;102050.81;6251566;28;20052;-74
2024/02/01 06:05:07;;;;;;;12.55;3.30;;;;;;;6.85;100.00;102053.44;6251444;28;20045;-73
2024/02/01 06:08:09;;;;;;;16.80;4.18;;;;;;;6.93;100.00;102063.78;6251345;28;20048;-73
2024/02/01 06:11:11;;;;;;;17.23;3.15;;;;;;;6.88;100.00;102078.66;6249022;28;20350;-74
2024/02/01 06:14:14;;;;;;;6.13;3.03;;;;;;;6.82;100.00;102084.88;6250626;28;20041;-74
2024/02/01 06:17:15;;;;;;;14.25;3.33;;;;;;;6.79;100.00;102088.38;6248101;28;20138;-74
2024/02/01 06:20:17;;;;;;;13.55;2.45;;;;;;;6.69;100.00;102093.78;6248686;28;20433;-74
2024/02/01 06:23:18;;;;;;;12.05;2.67;;;;;;;6.64;100.00;102095.59;6246107;28;20042;-74
2024/02/01 06:26:25;;;;;;;20.60;3.15;;;;;;;6.66;100.00;102104.25;6248837;28;20052;-74
2024/02/01 06:29:26;;;;;;;17.02;3.15;;;;;;;6.63;100.00;102112.13;6250285;28;20041;-73
2024/02/01 06:32:28;;;;;;;20.65;2.83;;;;;;;6.56;100.00;102112.25;6250366;28;20345;-76
2024/02/01 06:35:33;;;;;;;15.13;3.03;;;;;;;6.67;100.00;102119.03;6249260;28;20077;-73
2024/02/01 06:38:50;;;;;;;11.65;2.35;;;;;;;6.72;100.00;102125.06;6250854;28;20052;-76
2024/02/01 06:42:02;;;;;;;17.23;2.65;;;;;;;6.66;100.00;102131.25;6250378;28;20046;-74
2024/02/01 06:45:24;;;;;;;16.13;2.35;;;;;;;6.71;100.00;102129.44;6248547;28;20048;-76
2024/02/01 06:48:40;;;;;;;12.40;2.33;;;;;;;6.63;100.00;102136.50;6249411;28;20052;-74
2024/02/01 06:51:43;;;;;;;21.40;3.10;;;;;;;6.73;100.00;102140.72;6250355;28;20045;-74
2024/02/01 06:54:53;;;;;;;16.20;3.13;;;;;;;6.67;100.00;102146.03;6248348;28;20058;-74
2024/02/01 06:58:03;;;;;;;15.23;2.67;;;;;;;6.74;100.00;102157.28;6249135;28;20057;-76
2024/02/01 07:01:24;;;;;;;17.52;2.40;;;;;;;6.63;100.00;102154.78;6250487;28;20049;-74
2024/02/01 07:04:31;;;;;;;17.33;3.42;;;;;;;6.54;100.00;102174.09;6251206;28;20054;-75
2024/02/01 07:07:42;;;;;;;14.73;2.15;;;;;;;6.52;100.00;102182.81;6250509;28;20095;-72
2024/02/01 07:10:43;;;;;;;15.07;2.00;;;;;;;6.51;100.00;102189.78;6251067;28;20060;-73
2024/02/01 07:13:57;;;;;;;20.45;2.45;;;;;;;6.52;100.00;102188.91;6250647;28;20049;-74
2024/02/01 07:17:16;;;;;;;15.55;2.00;;;;;;;6.41;100.00;102189.94;6250474;28;20041;-73
2024/02/01 07:20:23;;;;;;;11.10;1.85;;;;;;;6.45;100.00;102184.66;6249229;28;20045;-73
2024/02/01 07:23:48;;;;;;;16.60;1.75;;;;;;;6.33;100.00;102197.88;6250461;28;20053;-72
2024/02/01 07:57:35;;;;;;;11.15;1.85;;;;;;;6.29;100.00;102204.88;6248163;28;20041;-75
2024/02/01 08:00:06;;;;;;;33.40;3.42;;;;;;;6.12;100.00;102243.34;6277954;23;20052;-78
2024/02/01 08:03:32;;;;;;;20.60;2.17;;;;;;;6.08;100.00;102239.03;6265871;28;20058;-78
2024/02/01 08:09:53;;;;;;;16.02;2.25;;;;;;;5.85;100.00;102242.69;6259529;28;20053;-78
2024/02/01 08:12:55;;;;;;;33.05;2.28;;;;;;;5.78;100.00;102251.50;6246753;28;20061;-78
2024/02/01 08:15:57;;;;;;;27.95;3.03;;;;;;;5.83;100.00;102252.31;6248176;28;20464;-78
2024/02/01 08:19:00;;;;;;;25.77;2.88;;;;;;;5.94;100.00;102259.19;6251117;28;20045;-79
2024/02/01 08:22:01;;;;;;;17.40;2.00;;;;;;;5.79;100.00;102257.56;6250095;28;20084;-77
2024/02/01 08:25:02;;;;;;;27.48;2.50;;;;;;;5.93;100.00;102258.31;6254909;28;20120;-78
2024/02/01 08:28:06;;;;;;;19.88;2.22;;;;;;;6.00;100.00;102267.84;6261675;28;20056;-77
2024/02/01 08:31:13;;;;;;;21.92;2.80;;;;;;;5.97;100.00;102278.28;6267121;28;20042;-79
2024/02/01 08:34:16;;;;;;;22.90;3.67;;;;;;;6.00;100.00;102283.50;6260471;28;20052;-77
2024/02/01 08:37:17;;;;;;;19.88;2.90;;;;;;;5.97;100.00;102290.47;6241455;28;20038;-78
2024/02/01 08:40:20;;;;;;;16.08;1.92;;;;;;;5.85;100.00;102294.88;6250646;28;20041;-78
2024/02/01 08:43:21;;;;;;;18.40;2.38;;;;;;;5.83;100.00;102296.66;6246290;28;20167;-76
2024/02/01 08:46:23;;;;;;;24.40;2.25;;;;;;;5.87;100.00;102300.09;6250053;28;20042;-77
2024/02/01 08:49:25;;;;;;;20.25;2.85;;;;;;;6.03;100.00;102314.75;6252299;28;20072;-77
2024/02/01 08:52:27;;;;;;;26.58;3.38;;;;;;;6.01;100.00;102300.88;6249324;28;20473;-77
2024/02/01 08:55:30;;;;;;;11.80;2.10;;;;;;;5.92;100.00;102308.78;6250783;28;20049;-79
2024/02/01 08:58:32;;;;;;;20.83;1.80;;;;;;;5.93;100.00;102304.44;6247700;28;20335;-79
2024/02/01 09:01:33;;;;;;;31.15;2.88;;;;;;;6.01;100.00;102313.94;6270023;28;20060;-78
2024/02/01 09:04:36;;;;;;;18.27;4.18;;;;;;;6.02;100.00;102326.09;6277710;28;20052;-79
2024/02/01 09:07:41;;;;;;;14.68;1.75;;;;;;;6.21;100.00;102329.38;6272579;28;20128;-79
2024/02/01 09:10:50;;;;;;;16.17;2.30;;;;;;;6.17;100.00;102332.91;6267305;28;20511;-79
2024/02/01 09:13:51;;;;;;;24.95;2.72;;;;;;;6.13;100.00;102332.94;6272542;28;20356;-78
2024/02/01 09:16:53;;;;;;;23.95;3.17;;;;;;;6.29;100.00;102339.75;6277417;28;20053;-78
2024/02/01 09:19:56;;;;;;;16.27;1.80;;;;;;;6.16;100.00;102343.38;6271149;28;20046;-78
2024/02/01 09:22:58;;;;;;;15.02;1.95;;;;;;;6.25;100.00;102351.09;6269764;28;20460;-77
2024/02/01 09:25:59;;;;;;;18.88;2.40;;;;;;;6.22;100.00;102353.72;6269716;28;20041;-79
2024/02/01 09:29:11;;;;;;;17.90;1.80;;;;;;;6.20;100.00;102360.72;6270085;28;20049;-78
2024/02/01 09:32:15;;;;;;;16.00;2.53;;;;;;;6.22;100.00;102364.19;6282384;28;20053;-78
2024/02/01 09:35:19;;;;;;;22.60;2.38;;;;;;;6.26;100.00;102371.97;6294437;28;20045;-76
2024/02/01 09:38:21;;;;;;;29.67;2.42;;;;;;;6.22;100.00;102365.06;6281558;28;20047;-78
2024/02/01 09:41:22;;;;;;;25.95;4.00;;;;;;;6.26;100.00;102382.41;6275165;28;20325;-79
2024/02/01 09:44:26;;;;;;;16.00;2.00;;;;;;;6.38;100.00;102376.22;6279241;28;20448;-78
2024/02/01 09:47:28;;;;;;;21.17;3.15;;;;;;;6.54;100.00;102390.88;6268887;28;20353;-76
2024/02/01 09:50:31;;;;;;;19.92;3.90;;;;;;;6.47;100.00;102385.72;6277662;28;20052;-79
2024/02/01 09:53:32;;;;;;;28.70;2.85;;;;;;;6.56;100.00;102391.69;6277659;28;20053;-78
2024/02/01 09:56:34;;;;;;;22.20;2.28;;;;;;;6.59;100.00;102396.03;6277179;28;20049;-78
2024/02/01 09:59:37;;;;;;;16.02;2.67;;;;;;;6.61;100.00;102416.03;6277400;28;20045;-77
2024/02/01 10:02:39;;;;;;;19.30;1.70;;;;;;;6.72;100.00;102408.09;6270032;28;20433;-78
2024/02/01 10:05:42;;;;;;;18.77;2.80;;;;;;;6.66;100.00;102415.97;6288695;28;20547;-78
2024/02/01 10:08:45;;;;;;;23.55;3.75;;;;;;;6.44;100.00;102411.84;6269196;28;20131;-77
2024/02/01 10:11:47;;;;;;;28.60;2.92;;;;;;;6.65;100.00;102424.72;6270715;28;20124;-77
2024/02/01 10:14:50;;;;;;;22.25;2.50;;;;;;;6.69;100.00;102451.66;6281837;28;20055;-78
2024/02/01 10:17:52;;;;;;;20.63;3.65;;;;;;;6.69;100.00;102420.31;6269488;28;20053;-79
2024/02/01 10:20:58;;;;;;;18.15;2.42;;;;;;;6.68;100.00;102421.22;6276969;28;20048;-79
2024/02/01 10:24:04;;;;;;;20.08;2.33;;;;;;;6.80;100.00;102423.66;6276532;28;20210;-75
2024/02/01 10:27:07;;;;;;;24.95;3.20;;;;;;;6.92;100.00;102426.16;6276462;28;20068;-78
2024/02/01 10:30:12;;;;;;;15.85;2.00;;;;;;;6.91;100.00;102432.28;6276556;28;20049;-78
2024/02/01 10:33:15;;;;;;;16.83;3.60;;;;;;;6.98;100.00;102439.16;6276570;28;20094;-76
2024/02/01 10:36:21;;;;;;;25.02;2.28;;;;;;;6.98;100.00;102417.38;6288118;28;20047;-78
2024/02/01 10:39:29;;;;;;;25.35;2.10;;;;;;;6.94;100.00;102441.81;6293076;28;20056;-77
2024/02/01 10:42:31;;;;;;;24.15;2.50;;;;;;;6.97;100.00;102439.19;6274022;28;20132;-77
2024/02/01 10:45:36;;;;;;;19.33;2.38;;;;;;;7.04;100.00;102431.25;6275403;28;20045;-77
2024/02/01 10:48:43;;;;;;;17.15;2.33;;;;;;;7.11;100.00;102440.75;6272681;28;20145;-77
2024/02/01 10:51:47;;;;;;;19.38;2.95;;;;;;;7.21;100.00;102430.19;6275726;28;20463;-75
2024/02/01 10:54:49;;;;;;;21.65;1.80;;;;;;;7.06;100.00;102441.69;6275263;28;20044;-76
2024/02/01 10:57:51;;;;;;;25.17;3.03;;;;;;;7.33;100.00;102428.28;6282228;28;20072;-76
2024/02/01 11:00:52;;;;;;;15.18;2.75;;;;;;;7.18;100.00;102414.56;6274413;28;20041;-75
2024/02/01 11:03:56;;;;;;;24.88;2.28;;;;;;;7.11;100.00;102411.13;6275511;28;20045;-76
2024/02/01 11:06:59;;;;;;;21.05;2.20;;;;;;;7.33;100.00;102415.19;6272655;28;20045;-76
2024/02/01 11:10:00;;;;;;;24.38;2.67;;;;;;;7.30;100.00;102422.22;6275753;28;20045;-75
2024/02/01 11:13:04;;;;;;;31.05;2.20;;;;;;;7.47;100.00;102412.41;6275604;28;20060;-75
2024/02/01 11:16:06;;;;;;;22.17;2.17;;;;;;;7.45;100.00;102416.81;6275075;28;20052;-77
2024/02/01 11:19:11;;;;;;;19.40;2.70;;;;;;;7.55;100.00;102413.16;6274642;28;20360;-75
2024/02/01 11:22:15;;;;;;;14.65;2.38;;;;;;;7.65;100.00;102419.13;6272551;28;20045;-76
2024/02/01 11:25:16;;;;;;;17.08;2.17;;;;;;;7.75;100.00;102418.09;6274709;28;20352;-77
2024/02/01 11:28:30;;;;;;;29.95;4.15;;;;;;;7.53;100.00;102417.53;6274273;28;20049;-76
2024/02/01 11:31:32;;;;;;;10.27;1.63;;;;;;;7.62;100.00;102411.31;6272820;28;20045;-76
2024/02/01 11:34:35;;;;;;;24.55;4.32;;;;;;;7.40;100.00;102415.97;6274574;28;20135;-77
2024/02/01 11:37:38;;;;;;;16.90;1.80;;;;;;;7.59;100.00;102421.84;6274229;28;20386;-75
2024/02/01 11:40:42;;;;;;;29.30;2.47;;;;;;;7.77;100.00;102439.91;6267644;28;20132;-77
2024/02/01 11:43:44;;;;;;;21.73;3.30;;;;;;;8.04;100.00;102436.00;6266836;28;20051;-74
2024/02/01 11:46:46;;;;;;;28.20;2.75;;;;;;;8.13;100.00;102433.25;6278376;28;20433;-76
2024/02/01 11:49:49;;;;;;;19.23;3.65;;;;;;;8.12;100.00;102448.94;6267795;28;20341;-76
2024/02/01 11:52:58;;;;;;;12.02;2.03;;;;;;;8.10;100.00;102455.97;6284823;28;20049;-76
2024/02/01 11:55:59;;;;;;;12.60;1.98;;;;;;;7.88;100.00;102461.53;6269591;28;20103;-78
2024/02/01 11:59:03;;;;;;;9.45;2.20;;;;;;;7.96;100.00;102455.34;6270995;28;20349;-79
2024/02/01 12:02:06;;;;;;;14.23;2.10;;;;;;;7.72;100.00;102461.75;6281464;28;20049;-77
2024/02/01 12:05:08;;;;;;;24.63;2.00;;;;;;;7.81;100.00;102461.63;6271437;28;20046;-79
2024/02/01 12:08:11;;;;;;;22.88;2.17;;;;;;;7.86;100.00;102449.38;6274265;28;20052;-77
2024/02/01 12:11:13;;;;;;;13.82;2.20;;;;;;;7.80;100.00;102457.28;6274627;28;20052;-77
2024/02/01 12:14:21;;;;;;;20.90;2.53;;;;;;;8.02;100.00;102482.28;6274264;28;20045;-78
2024/02/01 12:17:24;;;;;;;12.65;2.85;;;;;;;8.08;100.00;102460.34;6271118;28;20071;-77
2024/02/01 12:20:28;;;;;;;20.30;2.28;;;;;;;8.27;100.00;102482.78;6275152;28;20049;-77
2024/02/01 12:23:34;;;;;;;16.02;2.38;;;;;;;8.31;100.00;102481.84;6274572;28;20345;-77
2024/02/01 12:26:35;;;;;;;15.15;2.25;;;;;;;8.33;100.00;102473.94;6274414;28;20049;-77
2024/02/01 12:29:37;;;;;;;12.63;2.45;;;;;;;8.48;100.00;102470.25;6274588;28;20060;-75
2024/02/01 12:32:43;;;;;;;16.05;2.75;;;;;;;8.50;100.00;102474.56;6274701;28;20060;-77
2024/02/01 12:35:46;;;;;;;10.18;2.70;;;;;;;8.68;100.00;102465.53;6274010;28;20436;-75
2024/02/01 12:38:51;;;;;;;29.00;5.15;;;;;;;8.77;100.00;102464.50;6268745;28;20598;-75
2024/02/01 12:41:52;;;;;;;11.75;1.88;;;;;;;8.63;100.00;102462.13;6268821;28;20045;-76
2024/02/01 12:44:54;;;;;;;19.65;2.90;;;;;;;8.48;100.00;102465.84;6258410;28;20053;-74
2024/02/01 12:47:55;;;;;;;18.77;3.55;;;;;;;8.27;100.00;102461.81;6274615;28;20741;-73
2024/02/01 12:50:58;;;;;;;24.70;2.47;;;;;;;8.42;100.00;102463.34;6277273;28;20057;-73
2024/02/01 12:54:01;;;;;;;15.30;2.25;;;;;;;8.27;100.00;102469.69;6278477;28;20061;-74
2024/02/01 12:57:04;;;;;;;29.00;3.08;;;;;;;8.23;100.00;102469.75;6277420;28;20052;-74
2024/02/01 13:00:07;;;;;;;13.63;2.15;;;;;;;8.44;100.00;102469.41;6262822;28;20050;-75
2024/02/01 13:03:08;;;;;;;16.02;2.72;;;;;;;8.38;100.00;102469.53;6262873;28;20406;-74
2024/02/01 13:06:10;;;;;;;15.15;2.25;;;;;;;8.25;100.00;102467.97;6273005;28;20045;-74
2024/02/01 13:09:28;;;;;;;9.80;1.92;;;;;;;8.20;100.00;102468.03;6274364;28;20131;-75
2024/02/01 13:12:29;;;;;;;16.13;2.47;;;;;;;8.44;100.00;102481.66;6278482;28;20152;-74
2024/02/01 13:15:30;;;;;;;14.07;2.53;;;;;;;8.59;100.00;102491.91;6278208;28;20049;-73
2024/02/01 13:18:32;;;;;;;14.55;2.53;;;;;;;8.57;100.00;102467.47;6277508;28;20056;-75
2024/02/01 13:21:33;;;;;;;9.68;2.25;;;;;;;8.49;100.00;102477.19;6278281;28;20060;-75
2024/02/01 13:24:36;;;;;;;14.00;2.28;;;;;;;8.51;100.00;102481.53;6277782;28;20072;-75
2024/02/01 13:27:37;;;;;;;23.23;2.22;;;;;;;8.57;100.00;102483.19;6274698;28;20052;-75
2024/02/01 13:30:39;;;;;;;15.73;1.92;;;;;;;8.35;100.00;102473.00;6263407;28;20048;-74
2024/02/01 13:33:41;;;;;;;11.45;1.85;;;;;;;8.38;100.00;102473.00;6270223;28;20450;-73
2024/02/01 13:36:43;;;;;;;13.35;2.28;;;;;;;8.52;100.00;102487.63;6264813;28;20051;-74
2024/02/01 13:39:45;;;;;;;12.77;2.38;;;;;;;8.38;100.00;102480.00;6264258;28;20049;-73
2024/02/01 13:42:47;;;;;;;20.63;2.42;;;;;;;8.50;100.00;102486.81;6267713;28;20176;-74
2024/02/01 13:45:49;;;;;;;17.70;2.70;;;;;;;8.49;100.00;102496.41;6264241;28;22144;-74
2024/02/01 13:48:50;;;;;;;16.23;2.00;;;;;;;8.57;100.00;102491.91;6264259;28;20126;-75
2024/02/01 13:51:52;;;;;;;7.72;1.33;;;;;;;8.43;100.00;102500.88;6260885;28;20064;-78
2024/02/01 13:54:55;;;;;;;22.63;3.08;;;;;;;8.41;100.00;102493.06;6264703;28;20045;-74
2024/02/01 13:57:56;;;;;;;13.45;2.35;;;;;;;8.41;100.00;102500.06;6263139;28;20132;-75
2024/02/01 14:00:58;;;;;;;19.63;1.75;;;;;;;8.42;100.00;102502.66;6285629;23;20041;-75
2024/02/01 14:03:59;;;;;;;9.52;1.98;;;;;;;8.21;100.00;102500.31;6273999;28;20057;-75
2024/02/01 14:07:00;;;;;;;15.80;2.33;;;;;;;8.28;100.00;102504.59;6276434;28;20052;-75
2024/02/01 14:10:05;;;;;;;15.82;1.88;;;;;;;8.20;100.00;102509.94;6277121;28;20048;-75
2024/02/01 14:13:07;;;;;;;9.68;2.20;;;;;;;8.23;100.00;102499.44;6276819;28;20060;-76
2024/02/01 14:16:08;;;;;;;23.85;2.00;;;;;;;8.23;100.00;102507.28;6276660;28;20056;-75
2024/02/01 14:19:10;;;;;;;24.35;2.95;;;;;;;8.31;100.00;102504.53;6276269;28;20054;-75
2024/02/01 14:22:11;;;;;;;14.52;1.85;;;;;;;8.30;100.00;102505.41;6276379;28;20052;-75
2024/02/01 14:25:14;;;;;;;18.90;2.55;;;;;;;8.08;100.00;102511.00;6276412;28;20045;-74
2024/02/01 14:28:15;;;;;;;18.75;2.38;;;;;;;8.04;100.00;102514.56;6276463;28;20052;-75
2024/02/01 14:31:17;;;;;;;9.48;1.90;;;;;;;8.20;100.00;102516.94;6276862;28;20118;-75
2024/02/01 14:34:18;;;;;;;15.95;1.90;;;;;;;8.29;100.00;102522.03;6276261;28;20052;-75
2024/02/01 14:37:22;;;;;;;15.05;2.03;;;;;;;8.35;100.00;102512.31;6270716;28;20449;-74